Time;durP1;ratioP1;P1;durP2;ratioP2;P2;SDS_P1;SDS_P2;PMS_P1;PMS_P2;Temp;Humidity;BMP_temperature;BMP_pressure;BME280_temperature;BME280_humidity;BME280_pressure;Samples;Min_cycle;Max_cycle;Signal;HPM_P1;HPM_P2
2021/03/11 00:00:41;;;;;;;19.42;10.70;;;11.50;71.90;;;;;;5045285;28;20063;-60
2021/03/11 00:03:07;;;;;;;16.67;10.02;;;11.60;72.20;;;;;;5045712;28;20033;-60
2021/03/11 00:05:35;;;;;;;17.30;9.80;;;11.60;72.70;;;;;;5043878;28;20017;-61
2021/03/11 00:08:02;;;;;;;19.33;9.85;;;11.50;72.50;;;;;;5044622;28;20032;-60
2021/03/11 00:10:28;;;;;;;21.10;10.45;;;11.50;72.60;;;;;;5044069;28;20171;-60
2021/03/11 00:12:54;;;;;;;15.68;8.00;;;11.50;72.30;;;;;;5045670;28;20048;-60
2021/03/11 00:15:21;;;;;;;18.02;10.07;;;11.60;72.20;;;;;;5044912;28;20458;-59
2021/03/11 00:17:47;;;;;;;18.88;10.43;;;11.60;71.60;;;;;;5045221;28;20683;-60
2021/03/11 00:20:16;;;;;;;14.93;8.77;;;11.60;71.60;;;;;;5042034;28;20109;-60
2021/03/11 00:22:42;;;;;;;15.35;8.60;;;11.60;71.70;;;;;;5043319;28;20103;-60
2021/03/11 00:25:09;;;;;;;15.57;9.05;;;11.60;71.70;;;;;;5044639;28;20021;-61
2021/03/11 00:27:35;;;;;;;13.45;8.05;;;11.60;71.70;;;;;;5045932;28;20519;-60
2021/03/11 00:30:05;;;;;;;13.57;7.72;;;11.60;72.00;;;;;;5045649;28;20021;-61
2021/03/11 00:32:31;;;;;;;14.27;7.18;;;11.60;71.50;;;;;;5044754;28;20091;-60
2021/03/11 00:34:58;;;;;;;13.98;8.40;;;11.60;71.50;;;;;;5045414;28;20491;-61
2021/03/11 00:37:23;;;;;;;16.30;7.50;;;11.60;71.30;;;;;;5045413;28;20063;-60
2021/03/11 00:39:49;;;;;;;14.48;9.13;;;11.60;71.30;;;;;;5044424;28;20048;-60
2021/03/11 00:42:15;;;;;;;16.13;8.40;;;11.50;71.70;;;;;;5045081;28;20690;-60
2021/03/11 00:44:41;;;;;;;12.73;7.75;;;11.50;72.00;;;;;;5044183;28;20021;-60
2021/03/11 00:47:07;;;;;;;15.20;7.70;;;11.60;72.50;;;;;;5043652;28;20036;-60
2021/03/11 00:49:34;;;;;;;14.90;8.55;;;11.50;72.10;;;;;;5044391;28;20048;-60
2021/03/11 00:52:01;;;;;;;15.25;7.57;;;11.50;72.40;;;;;;5043461;28;20025;-62
2021/03/11 00:54:27;;;;;;;17.85;9.38;;;11.50;72.00;;;;;;5045558;28;20032;-61
2021/03/11 00:56:52;;;;;;;14.45;9.27;;;11.50;71.90;;;;;;5045733;28;20093;-60
2021/03/11 00:59:18;;;;;;;17.52;9.20;;;11.50;72.00;;;;;;5046521;28;20702;-61
2021/03/11 01:01:44;;;;;;;18.33;10.52;;;11.50;72.10;;;;;;5045909;28;20459;-60
2021/03/11 01:04:12;;;;;;;16.35;9.45;;;11.40;71.90;;;;;;5045127;28;20495;-61
2021/03/11 01:06:37;;;;;;;16.38;8.32;;;11.40;72.00;;;;;;5045332;28;20452;-60
2021/03/11 01:09:04;;;;;;;14.50;9.07;;;11.50;72.00;;;;;;5043192;28;20108;-60
2021/03/11 01:11:31;;;;;;;16.70;8.48;;;11.40;72.00;;;;;;5045334;28;20029;-60
2021/03/11 01:13:58;;;;;;;14.27;8.25;;;11.30;71.50;;;;;;5045126;28;20025;-60
2021/03/11 01:16:24;;;;;;;13.93;8.50;;;11.40;71.50;;;;;;5045313;28;20130;-60
2021/03/11 01:18:50;;;;;;;16.00;9.23;;;11.40;71.40;;;;;;5044175;28;20114;-60
2021/03/11 01:21:16;;;;;;;14.65;8.55;;;11.40;71.10;;;;;;5046213;28;20609;-60
2021/03/11 01:23:42;;;;;;;13.88;8.48;;;11.40;70.80;;;;;;5045234;28;20090;-60
2021/03/11 01:26:08;;;;;;;14.02;8.00;;;11.40;70.90;;;;;;5044691;28;20153;-60
2021/03/11 01:28:34;;;;;;;12.70;8.00;;;11.40;71.20;;;;;;5045592;28;20488;-62
2021/03/11 01:30:59;;;;;;;13.00;7.95;;;11.40;71.00;;;;;;5044406;28;20035;-60
2021/03/11 01:33:25;;;;;;;12.50;7.72;;;11.40;71.40;;;;;;5044699;28;20021;-60
2021/03/11 01:35:51;;;;;;;13.52;7.53;;;11.40;71.50;;;;;;5044531;28;20028;-61
2021/03/11 01:38:17;;;;;;;13.20;7.57;;;11.40;71.90;;;;;;5045715;28;20035;-60
2021/03/11 01:40:42;;;;;;;13.40;7.78;;;11.40;71.90;;;;;;5044939;28;20506;-60
2021/03/11 01:43:09;;;;;;;16.52;8.05;;;11.30;72.30;;;;;;5045174;28;20536;-61
2021/03/11 01:45:35;;;;;;;14.18;7.28;;;11.30;72.00;;;;;;5044532;28;20087;-60
2021/03/11 01:48:01;;;;;;;16.58;8.27;;;11.30;72.20;;;;;;5044352;28;20028;-61
2021/03/11 01:50:28;;;;;;;9.27;6.00;;;11.30;72.50;;;;;;5044776;28;20415;-60
2021/03/11 01:52:55;;;;;;;12.68;7.55;;;11.30;72.70;;;;;;5044533;28;20021;-61
2021/03/11 01:55:21;;;;;;;15.40;7.88;;;11.30;72.50;;;;;;5044747;28;20029;-61
2021/03/11 01:57:47;;;;;;;13.05;7.85;;;11.30;73.40;;;;;;5045248;28;20025;-60
2021/03/11 02:00:14;;;;;;;14.77;9.05;;;11.20;73.60;;;;;;5044488;28;20121;-60
2021/03/11 02:02:42;;;;;;;11.82;7.53;;;11.30;73.70;;;;;;5044051;28;20025;-60
2021/03/11 02:05:09;;;;;;;11.73;6.50;;;11.20;73.90;;;;;;5044288;28;20032;-60
2021/03/11 02:07:35;;;;;;;15.15;8.38;;;11.20;74.10;;;;;;5044644;28;20499;-60
2021/03/11 02:10:01;;;;;;;11.70;6.85;;;11.20;73.80;;;;;;5043787;28;20032;-61
2021/03/11 02:12:44;;;;;;;12.25;7.15;;;11.20;73.90;;;;;;5044640;28;20021;-61
2021/03/11 02:15:20;;;;;;;10.48;6.40;;;11.20;73.80;;;;;;5044257;28;20052;-61
2021/03/11 02:18:18;;;;;;;14.07;7.15;;;11.20;73.70;;;;;;5044549;28;20021;-61
2021/03/11 02:20:49;;;;;;;14.60;7.63;;;11.10;73.80;;;;;;5042184;28;20033;-62
2021/03/11 02:23:48;;;;;;;14.23;7.85;;;11.10;73.80;;;;;;5045108;28;20380;-61
2021/03/11 02:26:28;;;;;;;15.05;7.13;;;11.10;73.90;;;;;;5044864;28;20411;-61
2021/03/11 02:29:00;;;;;;;12.27;7.28;;;11.00;74.10;;;;;;5044233;28;20036;-61
2021/03/11 02:31:28;;;;;;;12.15;7.47;;;11.00;74.20;;;;;;5048135;28;20036;-61
2021/03/11 02:33:57;;;;;;;13.57;7.28;;;11.00;74.30;;;;;;5047827;28;20490;-61
2021/03/11 02:36:25;;;;;;;13.90;7.80;;;11.00;74.40;;;;;;5048197;28;20431;-61
2021/03/11 02:38:54;;;;;;;12.13;6.97;;;11.00;74.70;;;;;;5048034;28;20422;-60
2021/03/11 02:41:20;;;;;;;11.43;7.00;;;11.00;75.10;;;;;;5048358;28;20029;-61
2021/03/11 02:43:49;;;;;;;13.02;6.57;;;11.00;74.90;;;;;;5048592;28;20416;-60
2021/03/11 02:46:16;;;;;;;12.63;6.70;;;11.00;75.00;;;;;;5046951;28;20105;-60
2021/03/11 02:48:44;;;;;;;12.77;7.60;;;11.00;75.50;;;;;;5045685;28;20021;-61
2021/03/11 02:51:12;;;;;;;16.27;7.93;;;10.90;75.40;;;;;;5047221;28;20040;-61
2021/03/11 02:53:38;;;;;;;13.82;7.47;;;10.90;75.60;;;;;;5047818;28;20124;-60
2021/03/11 02:56:07;;;;;;;11.23;6.57;;;10.90;75.70;;;;;;5047425;28;20032;-60
2021/03/11 02:58:33;;;;;;;13.15;6.45;;;10.90;75.90;;;;;;5047979;28;20078;-60
2021/03/11 03:01:00;;;;;;;15.40;7.82;;;10.80;76.20;;;;;;5047364;28;20082;-60
2021/03/11 03:03:28;;;;;;;10.50;6.15;;;10.80;76.60;;;;;;5047550;28;20060;-60
2021/03/11 03:05:56;;;;;;;11.68;6.60;;;10.90;76.50;;;;;;5047153;28;20411;-61
2021/03/11 03:08:23;;;;;;;11.43;6.45;;;10.80;76.80;;;;;;5047322;28;20040;-61
2021/03/11 03:10:53;;;;;;;10.63;6.05;;;10.90;76.90;;;;;;5047299;28;20079;-62
2021/03/11 03:13:20;;;;;;;11.00;6.10;;;10.90;76.90;;;;;;5047935;28;20104;-60
2021/03/11 03:15:47;;;;;;;14.82;7.07;;;10.90;77.10;;;;;;5048007;28;20048;-60
2021/03/11 03:18:15;;;;;;;10.50;5.68;;;10.80;77.20;;;;;;5046909;28;20131;-60
2021/03/11 03:20:42;;;;;;;10.07;5.20;;;10.80;77.30;;;;;;5047335;28;20029;-61
2021/03/11 03:23:08;;;;;;;10.77;5.53;;;10.90;77.40;;;;;;5047395;28;20032;-61
2021/03/11 03:25:35;;;;;;;11.57;5.70;;;10.80;77.80;;;;;;5047098;28;20170;-60
2021/03/11 03:28:01;;;;;;;12.55;6.28;;;10.90;77.90;;;;;;5047141;28;20078;-60
2021/03/11 03:30:28;;;;;;;11.75;6.53;;;10.80;78.20;;;;;;5047062;28;20458;-60
2021/03/11 03:32:54;;;;;;;10.55;6.32;;;10.80;78.60;;;;;;5046704;28;20115;-60
2021/03/11 03:35:22;;;;;;;12.98;6.95;;;10.80;78.80;;;;;;5047179;28;20025;-60
2021/03/11 03:37:50;;;;;;;13.52;6.90;;;10.70;78.90;;;;;;5047876;28;20028;-60
2021/03/11 03:40:16;;;;;;;16.08;6.70;;;10.70;79.20;;;;;;5047266;28;20027;-60
2021/03/11 03:43:06;;;;;;;13.73;7.38;;;10.70;79.20;;;;;;5047094;28;20056;-60
2021/03/11 03:45:37;;;;;;;15.57;6.85;;;10.70;79.40;;;;;;5046777;28;20036;-60
2021/03/11 03:48:06;;;;;;;11.75;6.55;;;10.70;79.40;;;;;;5046921;28;20021;-60
2021/03/11 03:50:32;;;;;;;12.52;6.70;;;10.60;79.70;;;;;;5046854;28;20494;-61
2021/03/11 03:53:01;;;;;;;11.15;6.22;;;10.70;79.70;;;;;;5046538;28;20025;-61
2021/03/11 03:55:28;;;;;;;9.88;5.43;;;10.70;80.10;;;;;;5046813;28;20036;-60
2021/03/11 03:57:56;;;;;;;9.27;5.43;;;10.70;79.90;;;;;;5046335;28;20479;-60
2021/03/11 04:00:24;;;;;;;8.38;4.53;;;10.80;80.10;;;;;;5046755;28;20631;-60
2021/03/11 04:02:54;;;;;;;7.45;4.53;;;10.70;80.40;;;;;;5046043;28;20557;-60
2021/03/11 04:05:24;;;;;;;8.63;4.78;;;10.80;80.50;;;;;;5046302;28;20084;-60
2021/03/11 04:07:52;;;;;;;9.15;5.03;;;10.80;80.60;;;;;;5046636;28;20371;-60
2021/03/11 04:10:17;;;;;;;9.27;4.85;;;10.80;80.60;;;;;;5046587;28;20101;-60
2021/03/11 04:12:44;;;;;;;9.00;4.57;;;10.80;80.70;;;;;;5046570;28;20096;-61
2021/03/11 04:15:11;;;;;;;8.40;4.47;;;10.80;80.80;;;;;;5046090;28;20036;-60
2021/03/11 04:17:38;;;;;;;10.98;4.80;;;10.80;81.10;;;;;;5046454;28;20018;-60
2021/03/11 04:20:05;;;;;;;10.02;5.15;;;10.80;81.90;;;;;;5046302;28;20041;-60
2021/03/11 04:22:32;;;;;;;7.85;4.18;;;10.80;82.30;;;;;;5046111;28;20021;-60
2021/03/11 04:24:58;;;;;;;8.77;4.75;;;10.90;82.60;;;;;;5046164;28;20051;-60
2021/03/11 04:27:25;;;;;;;8.45;5.00;;;10.80;83.50;;;;;;5046749;28;20403;-60
2021/03/11 04:29:52;;;;;;;8.68;4.78;;;10.70;84.00;;;;;;5043687;28;20120;-60
2021/03/11 04:32:19;;;;;;;7.82;4.05;;;10.70;84.40;;;;;;5045551;28;20502;-60
2021/03/11 04:34:46;;;;;;;7.22;3.88;;;10.90;84.80;;;;;;5046569;28;20044;-60
2021/03/11 04:37:12;;;;;;;6.05;3.67;;;10.80;85.80;;;;;;5045990;28;20036;-60
2021/03/11 04:39:38;;;;;;;6.80;3.50;;;10.70;87.40;;;;;;5046298;28;20626;-61
2021/03/11 04:42:05;;;;;;;6.40;3.67;;;10.70;88.70;;;;;;5045538;28;20032;-60
2021/03/11 04:44:31;;;;;;;6.78;3.33;;;10.80;89.80;;;;;;5045915;28;20112;-60
2021/03/11 04:46:58;;;;;;;11.25;4.47;;;10.70;90.40;;;;;;5045198;28;20140;-61
2021/03/11 04:49:29;;;;;;;6.95;3.72;;;10.60;91.00;;;;;;5046024;28;20411;-62
2021/03/11 04:51:56;;;;;;;5.25;3.08;;;10.60;91.30;;;;;;5045059;28;20487;-61
2021/03/11 04:54:22;;;;;;;5.82;3.10;;;10.70;91.50;;;;;;5045530;28;20023;-60
2021/03/11 04:56:48;;;;;;;5.40;3.08;;;10.60;91.80;;;;;;5046039;28;20028;-61
2021/03/11 04:59:17;;;;;;;5.22;2.90;;;10.60;92.20;;;;;;5045906;28;20025;-60
2021/03/11 05:01:49;;;;;;;5.45;3.30;;;10.60;92.30;;;;;;5045475;28;20108;-60
2021/03/11 05:04:15;;;;;;;5.43;3.10;;;10.60;92.60;;;;;;5045353;28;20052;-60
2021/03/11 05:06:41;;;;;;;7.13;3.28;;;10.60;92.70;;;;;;5045345;28;20025;-60
2021/03/11 05:09:07;;;;;;;6.30;3.40;;;10.60;92.80;;;;;;5046022;28;20108;-60
2021/03/11 05:11:32;;;;;;;4.78;2.30;;;10.60;92.90;;;;;;5045842;28;20052;-60
2021/03/11 05:13:58;;;;;;;4.40;2.75;;;10.70;92.90;;;;;;5046649;28;20029;-60
2021/03/11 05:16:24;;;;;;;6.57;2.95;;;10.60;93.10;;;;;;5046014;28;20021;-61
2021/03/11 05:18:50;;;;;;;4.85;2.60;;;10.60;93.00;;;;;;5062072;28;20051;-60
2021/03/11 05:21:16;;;;;;;5.95;3.25;;;10.70;93.10;;;;;;5067154;28;20020;-60
2021/03/11 05:23:41;;;;;;;4.85;2.65;;;10.60;93.20;;;;;;5054327;28;20040;-60
2021/03/11 05:26:07;;;;;;;4.82;2.58;;;10.70;93.20;;;;;;5045960;28;20029;-60
2021/03/11 05:28:32;;;;;;;2.60;2.10;;;10.70;93.20;;;;;;5046645;28;20490;-60
2021/03/11 05:30:58;;;;;;;4.82;2.75;;;10.70;93.10;;;;;;5046296;28;20430;-60
2021/03/11 05:33:24;;;;;;;6.63;3.40;;;10.70;93.20;;;;;;5046429;28;20449;-60
2021/03/11 05:35:50;;;;;;;7.63;3.10;;;10.60;93.20;;;;;;5045935;28;20032;-60
2021/03/11 05:38:16;;;;;;;4.93;3.35;;;10.70;93.10;;;;;;5046887;28;20039;-61
2021/03/11 05:40:41;;;;;;;7.90;3.15;;;10.70;93.20;;;;;;5046598;28;20032;-60
2021/03/11 05:43:08;;;;;;;4.78;3.28;;;10.60;92.90;;;;;;5046186;28;20727;-59
2021/03/11 05:45:35;;;;;;;5.60;3.35;;;10.70;92.70;;;;;;5045888;28;20021;-60
2021/03/11 05:48:02;;;;;;;5.90;3.50;;;10.70;92.50;;;;;;5044686;28;20089;-61
2021/03/11 05:50:27;;;;;;;7.28;4.00;;;10.70;92.30;;;;;;5044316;28;20100;-61
2021/03/11 05:52:57;;;;;;;5.82;3.97;;;10.70;92.30;;;;;;5044236;28;20128;-62
2021/03/11 05:55:24;;;;;;;5.68;3.90;;;10.70;92.20;;;;;;5044574;28;20092;-62
2021/03/11 05:57:50;;;;;;;8.18;4.15;;;10.60;92.10;;;;;;5043056;28;20090;-60
2021/03/11 06:00:18;;;;;;;7.30;3.75;;;10.60;92.30;;;;;;5045375;28;20017;-60
2021/03/11 06:02:45;;;;;;;6.63;3.58;;;10.70;92.20;;;;;;5045305;28;20021;-61
2021/03/11 06:05:21;;;;;;;7.13;4.13;;;10.60;92.20;;;;;;5044333;28;20031;-61
2021/03/11 06:07:48;;;;;;;5.93;4.30;;;10.60;92.60;;;;;;5045307;28;20028;-61
2021/03/11 06:10:16;;;;;;;7.10;4.03;;;10.60;92.50;;;;;;5044168;28;20414;-61
2021/03/11 06:12:43;;;;;;;8.55;4.88;;;10.60;92.50;;;;;;5044510;28;20048;-61
2021/03/11 06:15:14;;;;;;;6.32;3.42;;;10.60;92.80;;;;;;5042783;28;20582;-61
2021/03/11 06:17:42;;;;;;;6.70;4.22;;;10.60;92.80;;;;;;5044597;28;20021;-61
2021/03/11 06:20:09;;;;;;;5.45;3.50;;;10.60;93.00;;;;;;5044313;28;20539;-60
2021/03/11 06:22:35;;;;;;;10.40;4.30;;;10.70;93.20;;;;;;5044252;28;20028;-62
2021/03/11 06:25:06;;;;;;;5.38;3.40;;;10.60;93.40;;;;;;5043886;28;20017;-62
2021/03/11 06:27:32;;;;;;;5.95;3.35;;;10.70;93.60;;;;;;5044233;28;20028;-61
2021/03/11 06:29:58;;;;;;;5.55;3.63;;;10.70;93.80;;;;;;5044040;28;20021;-61
2021/03/11 06:32:26;;;;;;;7.40;3.08;;;10.70;93.90;;;;;;5044311;28;20484;-60
2021/03/11 06:34:53;;;;;;;4.82;3.17;;;10.70;94.00;;;;;;5043899;28;20033;-60
2021/03/11 06:37:36;;;;;;;5.65;3.15;;;10.70;94.10;;;;;;5044262;28;20033;-61
2021/03/11 06:40:19;;;;;;;7.85;3.08;;;10.70;94.10;;;;;;5044092;28;20446;-61
2021/03/11 06:42:47;;;;;;;6.38;3.60;;;10.70;94.20;;;;;;5043574;28;20028;-60
2021/03/11 06:45:27;;;;;;;4.97;2.65;;;10.70;94.40;;;;;;5043516;28;20047;-60
2021/03/11 06:48:12;;;;;;;6.07;3.58;;;10.70;94.60;;;;;;5044012;28;20028;-60
2021/03/11 06:50:38;;;;;;;5.53;3.17;;;10.80;94.70;;;;;;5044206;28;20825;-60
2021/03/11 06:53:04;;;;;;;3.42;2.35;;;10.70;94.90;;;;;;5043949;28;20108;-62
2021/03/11 06:55:31;;;;;;;4.25;2.72;;;10.90;94.80;;;;;;5042563;28;20108;-61
2021/03/11 06:58:21;;;;;;;3.83;2.53;;;10.90;94.90;;;;;;5043742;28;20036;-62
2021/03/11 07:00:48;;;;;;;2.65;1.80;;;10.90;95.00;;;;;;5043740;28;20033;-61
2021/03/11 07:03:15;;;;;;;2.63;1.83;;;10.90;95.00;;;;;;5045347;28;20092;-61
2021/03/11 07:05:44;;;;;;;3.60;2.00;;;11.00;95.00;;;;;;5045480;28;20094;-61
2021/03/11 07:08:14;;;;;;;3.08;1.77;;;11.10;95.00;;;;;;5044071;28;20039;-61
2021/03/11 07:10:41;;;;;;;1.67;1.48;;;11.20;94.80;;;;;;5045507;28;20056;-59
2021/03/11 07:13:08;;;;;;;1.63;1.00;;;11.30;94.80;;;;;;5044128;28;20056;-59
2021/03/11 07:15:37;;;;;;;2.40;1.60;;;11.30;94.70;;;;;;5044979;28;20499;-59
2021/03/11 07:18:07;;;;;;;2.90;1.70;;;11.20;94.90;;;;;;5048871;28;20025;-59
2021/03/11 07:20:34;;;;;;;2.35;1.67;;;11.30;94.70;;;;;;5047633;28;20033;-59
2021/03/11 07:23:10;;;;;;;2.40;1.33;;;11.30;94.70;;;;;;5048752;28;20025;-59
2021/03/11 07:25:40;;;;;;;4.00;2.33;;;11.40;94.80;;;;;;5047707;28;20060;-59
2021/03/11 07:28:08;;;;;;;3.50;2.10;;;11.40;94.80;;;;;;5048820;28;20572;-59
2021/03/11 07:30:49;;;;;;;3.05;2.10;;;11.30;94.80;;;;;;5048535;28;20070;-59
2021/03/11 07:33:15;;;;;;;5.32;2.15;;;11.40;94.60;;;;;;5044894;28;20074;-59
2021/03/11 07:35:43;;;;;;;3.83;2.30;;;11.50;94.80;;;;;;5046894;28;20476;-59
2021/03/11 07:38:14;;;;;;;3.72;2.50;;;11.40;94.50;;;;;;5048500;28;20029;-60
2021/03/11 07:40:41;;;;;;;4.45;2.40;;;11.40;94.50;;;;;;5047085;28;20039;-59
2021/03/11 07:43:07;;;;;;;4.70;2.25;;;11.40;94.70;;;;;;5047000;28;20053;-60
2021/03/11 07:45:33;;;;;;;5.13;2.20;;;11.40;94.70;;;;;;5047225;28;20068;-60
2021/03/11 07:48:01;;;;;;;6.25;3.42;;;11.50;94.70;;;;;;5048317;28;20021;-59
2021/03/11 07:50:28;;;;;;;4.93;2.70;;;11.30;94.80;;;;;;5048660;28;20086;-60
2021/03/11 07:52:55;;;;;;;3.78;2.33;;;11.30;94.60;;;;;;5047128;28;20017;-61
2021/03/11 07:55:26;;;;;;;5.40;3.00;;;11.30;94.60;;;;;;5045493;28;20419;-62
2021/03/11 07:57:52;;;;;;;5.05;3.10;;;11.30;94.80;;;;;;5046642;28;20028;-62
2021/03/11 08:00:25;;;;;;;4.78;2.80;;;11.20;94.70;;;;;;5047756;28;20025;-62
2021/03/11 08:02:59;;;;;;;3.53;2.88;;;11.30;94.60;;;;;;5046480;28;20021;-63
2021/03/11 08:05:29;;;;;;;6.03;3.50;;;11.30;94.50;;;;;;5046260;28;20040;-59
2021/03/11 08:08:14;;;;;;;5.25;3.20;;;11.30;94.60;;;;;;5046583;28;20054;-59
2021/03/11 08:10:54;;;;;;;6.57;2.80;;;11.40;94.40;;;;;;5046282;28;20025;-62
2021/03/11 08:13:26;;;;;;;3.83;2.80;;;11.40;94.40;;;;;;5030950;28;20025;-62
2021/03/11 08:15:52;;;;;;;5.25;3.00;;;11.40;94.40;;;;;;5033724;28;20033;-63
2021/03/11 08:18:33;;;;;;;5.43;3.13;;;11.40;94.60;;;;;;5047136;28;20021;-61
2021/03/11 08:21:07;;;;;;;5.88;2.70;;;11.40;94.40;;;;;;5042949;28;20506;-62
2021/03/11 08:23:34;;;;;;;5.73;2.63;;;11.40;94.30;;;;;;5048211;28;20583;-61
2021/03/11 08:26:02;;;;;;;8.18;3.63;;;11.40;94.40;;;;;;5040458;28;20669;-62
2021/03/11 08:28:30;;;;;;;4.35;2.53;;;11.50;94.30;;;;;;5046890;28;20528;-61
2021/03/11 08:31:04;;;;;;;4.63;2.75;;;11.50;94.20;;;;;;5045843;28;20053;-61
2021/03/11 08:33:33;;;;;;;3.35;2.20;;;11.60;94.10;;;;;;5047985;28;20100;-62
2021/03/11 08:35:59;;;;;;;3.22;2.00;;;11.60;94.20;;;;;;5045993;28;20083;-62
2021/03/11 08:38:30;;;;;;;3.53;2.20;;;11.60;94.20;;;;;;5046323;28;20029;-62
2021/03/11 08:41:09;;;;;;;7.22;2.35;;;11.60;94.40;;;;;;5046338;28;20410;-62
2021/03/11 08:43:37;;;;;;;3.65;2.30;;;11.70;94.30;;;;;;5047366;28;20021;-62
2021/03/11 08:46:08;;;;;;;3.97;2.13;;;11.60;94.50;;;;;;5045760;28;20029;-61
2021/03/11 08:48:53;;;;;;;4.28;2.40;;;11.70;94.50;;;;;;5047302;28;20518;-62
2021/03/11 08:51:18;;;;;;;4.53;3.25;;;11.60;94.40;;;;;;5047879;28;20032;-62
2021/03/11 08:53:50;;;;;;;5.35;3.10;;;11.70;94.50;;;;;;5048367;28;20021;-62
2021/03/11 08:56:16;;;;;;;8.32;3.17;;;11.60;94.50;;;;;;5046467;28;20025;-61
2021/03/11 08:59:24;;;;;;;5.22;2.53;;;11.60;94.40;;;;;;5047178;28;20764;-62
2021/03/11 09:01:52;;;;;;;5.97;2.53;;;11.60;94.50;;;;;;5043102;28;20052;-63
2021/03/11 09:04:23;;;;;;;6.20;2.88;;;11.70;94.90;;;;;;5047632;28;20021;-61
2021/03/11 09:07:06;;;;;;;5.57;3.17;;;11.60;95.00;;;;;;5046892;28;20430;-62
2021/03/11 09:09:32;;;;;;;4.18;2.58;;;11.60;94.90;;;;;;5046271;28;20021;-62
2021/03/11 09:11:59;;;;;;;3.03;2.08;;;11.60;94.90;;;;;;5046591;28;20589;-61
2021/03/11 09:14:26;;;;;;;4.03;2.47;;;11.60;94.90;;;;;;5046672;28;20422;-62
2021/03/11 09:16:52;;;;;;;6.30;2.80;;;11.60;95.00;;;;;;5046436;28;20072;-62
2021/03/11 09:19:19;;;;;;;7.75;2.70;;;11.60;95.00;;;;;;5047240;28;20025;-62
2021/03/11 09:21:45;;;;;;;6.57;3.58;;;11.60;95.20;;;;;;5032307;28;20124;-62
2021/03/11 09:24:20;;;;;;;5.55;3.20;;;11.60;95.20;;;;;;5046341;28;20025;-62
2021/03/11 09:26:47;;;;;;;5.57;3.30;;;11.60;95.30;;;;;;5046990;28;20667;-63
2021/03/11 09:29:14;;;;;;;5.65;3.00;;;11.60;95.30;;;;;;5046021;28;20038;-62
2021/03/11 09:31:40;;;;;;;5.22;2.80;;;11.60;95.40;;;;;;5043605;28;20117;-63
2021/03/11 09:34:07;;;;;;;9.05;3.70;;;11.70;95.40;;;;;;5046192;28;20107;-61
2021/03/11 09:36:33;;;;;;;6.30;3.03;;;11.70;95.20;;;;;;5045714;28;20044;-61
2021/03/11 09:39:07;;;;;;;4.93;2.80;;;11.80;95.10;;;;;;5046093;28;20025;-61
2021/03/11 09:41:35;;;;;;;4.55;2.65;;;11.80;95.20;;;;;;5045853;28;20038;-62
2021/03/11 09:44:08;;;;;;;3.75;2.63;;;11.90;95.10;;;;;;5043450;28;20127;-62
2021/03/11 09:46:34;;;;;;;5.68;2.58;;;11.90;94.90;;;;;;5044904;28;20040;-60
2021/03/11 09:49:00;;;;;;;4.13;2.80;;;12.00;94.60;;;;;;5045082;28;20052;-62
2021/03/11 09:51:31;;;;;;;6.10;2.50;;;12.00;94.50;;;;;;5046200;28;20068;-61
2021/03/11 09:54:05;;;;;;;4.78;2.85;;;12.10;94.50;;;;;;5044626;28;20075;-61
2021/03/11 09:56:37;;;;;;;5.45;2.70;;;12.00;94.30;;;;;;5044884;28;20067;-61
2021/03/11 09:59:14;;;;;;;5.45;3.00;;;12.00;94.30;;;;;;5025564;28;20576;-61
2021/03/11 10:01:48;;;;;;;5.30;2.80;;;12.00;94.30;;;;;;5026845;28;20036;-62
2021/03/11 10:04:29;;;;;;;6.38;2.97;;;12.00;94.40;;;;;;5046764;28;20056;-62
2021/03/11 10:07:00;;;;;;;5.07;2.60;;;12.10;94.40;;;;;;5044658;28;20383;-62
2021/03/11 10:09:35;;;;;;;5.65;2.40;;;12.10;94.30;;;;;;5044486;28;20071;-60
2021/03/11 10:12:00;;;;;;;4.32;2.40;;;12.20;94.30;;;;;;5044265;28;20029;-61
2021/03/11 10:14:28;;;;;;;4.75;2.20;;;12.20;94.20;;;;;;5043778;28;20027;-60
2021/03/11 10:16:59;;;;;;;4.72;2.42;;;12.30;94.30;;;;;;5045166;28;20735;-61
2021/03/11 10:19:27;;;;;;;7.45;2.45;;;12.30;94.40;;;;;;5045545;28;20055;-60
2021/03/11 10:22:01;;;;;;;4.63;2.45;;;12.30;94.70;;;;;;5043438;28;20028;-61
2021/03/11 10:24:49;;;;;;;7.05;3.00;;;12.30;94.80;;;;;;5045791;28;20027;-60
2021/03/11 10:27:17;;;;;;;4.75;3.15;;;12.30;95.00;;;;;;5044991;28;20037;-60
2021/03/11 10:29:43;;;;;;;4.57;3.15;;;12.20;95.00;;;;;;5044191;28;20083;-60
2021/03/11 10:32:09;;;;;;;4.35;2.65;;;12.20;95.20;;;;;;5045081;28;20106;-61
2021/03/11 10:34:48;;;;;;;4.93;2.95;;;12.20;95.20;;;;;;5041979;28;20048;-59
2021/03/11 10:37:40;;;;;;;4.25;2.90;;;12.20;95.30;;;;;;5044460;28;20517;-60
2021/03/11 10:40:11;;;;;;;4.35;2.70;;;12.30;95.30;;;;;;5043373;28;20028;-60
2021/03/11 10:42:51;;;;;;;6.13;2.90;;;12.30;95.50;;;;;;5043027;28;20175;-61
2021/03/11 10:45:20;;;;;;;5.30;3.03;;;12.30;95.60;;;;;;5042793;28;20033;-61
2021/03/11 10:48:07;;;;;;;4.10;2.75;;;12.30;95.40;;;;;;5043990;28;20052;-61
2021/03/11 10:50:41;;;;;;;5.10;2.92;;;12.40;95.80;;;;;;5044021;28;20017;-63
2021/03/11 10:53:06;;;;;;;4.65;3.03;;;12.40;95.60;;;;;;5046199;28;20494;-61
2021/03/11 10:55:34;;;;;;;4.32;2.53;;;12.50;95.80;;;;;;5046442;28;20064;-59
2021/03/11 10:58:01;;;;;;;6.43;3.30;;;12.50;95.80;;;;;;5045790;28;20029;-59
2021/03/11 11:00:29;;;;;;;3.92;2.45;;;12.60;95.80;;;;;;5047326;28;20434;-59
2021/03/11 11:02:58;;;;;;;4.25;1.92;;;12.70;95.80;;;;;;5046473;28;20025;-60
2021/03/11 11:05:25;;;;;;;2.47;1.95;;;12.70;95.60;;;;;;5047076;28;20021;-59
2021/03/11 11:07:51;;;;;;;5.43;2.63;;;12.70;95.50;;;;;;5044472;28;20898;-59
2021/03/11 11:10:19;;;;;;;4.60;2.60;;;12.70;95.60;;;;;;5047097;28;20029;-60
2021/03/11 11:12:46;;;;;;;3.75;2.72;;;12.80;95.70;;;;;;5046172;28;20395;-59
2021/03/11 11:15:13;;;;;;;6.15;2.63;;;12.80;95.50;;;;;;5045957;28;20033;-59
2021/03/11 11:17:39;;;;;;;8.27;3.72;;;12.80;95.60;;;;;;5044232;28;20059;-59
2021/03/11 11:20:07;;;;;;;4.30;2.67;;;12.70;95.60;;;;;;5046875;28;20025;-59
2021/03/11 11:22:34;;;;;;;5.00;2.85;;;12.80;95.80;;;;;;5046038;28;20433;-60
2021/03/11 11:25:00;;;;;;;4.60;2.33;;;12.80;95.60;;;;;;5047661;28;20025;-58
2021/03/11 11:27:26;;;;;;;6.25;3.20;;;12.80;95.70;;;;;;5047366;28;20314;-59
2021/03/11 11:29:52;;;;;;;6.00;2.53;;;12.80;95.70;;;;;;5047118;28;20041;-59
2021/03/11 11:32:18;;;;;;;6.28;3.30;;;12.80;95.70;;;;;;5047812;28;20056;-59
2021/03/11 11:34:44;;;;;;;5.57;3.13;;;12.80;95.60;;;;;;5048004;28;20439;-60
2021/03/11 11:37:10;;;;;;;7.60;3.88;;;12.80;95.70;;;;;;5047997;28;20506;-59
2021/03/11 11:39:37;;;;;;;5.43;3.28;;;12.80;95.90;;;;;;5048661;28;20043;-60
2021/03/11 11:42:05;;;;;;;10.48;4.47;;;12.80;95.90;;;;;;5047297;28;20031;-60
2021/03/11 11:44:31;;;;;;;6.40;3.53;;;12.70;96.00;;;;;;5047961;28;20025;-60
2021/03/11 11:46:56;;;;;;;6.20;3.58;;;12.80;96.10;;;;;;5046630;28;20043;-59
2021/03/11 11:49:22;;;;;;;6.05;3.60;;;12.80;96.00;;;;;;5047086;28;20025;-60
2021/03/11 11:51:47;;;;;;;7.63;3.90;;;12.70;96.20;;;;;;5047589;28;20035;-59
2021/03/11 11:54:14;;;;;;;6.32;3.28;;;12.80;96.10;;;;;;5046690;28;20017;-59
2021/03/11 11:56:40;;;;;;;5.07;3.28;;;12.80;96.10;;;;;;5046651;28;20610;-59
2021/03/11 11:59:07;;;;;;;6.38;3.70;;;12.80;96.10;;;;;;5046583;28;20104;-59
2021/03/11 12:01:33;;;;;;;5.05;2.90;;;12.80;96.10;;;;;;5046685;28;20492;-59
2021/03/11 12:03:59;;;;;;;5.95;3.42;;;12.80;96.30;;;;;;5046264;28;20074;-60
2021/03/11 12:06:25;;;;;;;5.40;3.05;;;12.90;96.30;;;;;;5046442;28;20029;-59
2021/03/11 12:08:50;;;;;;;3.67;2.67;;;13.00;96.10;;;;;;5045928;28;20036;-59
2021/03/11 12:11:17;;;;;;;5.72;2.67;;;13.00;96.30;;;;;;5047057;28;20120;-59
2021/03/11 12:13:43;;;;;;;3.00;2.28;;;13.10;96.10;;;;;;5046487;28;20491;-59
2021/03/11 12:16:09;;;;;;;6.75;2.92;;;13.10;96.00;;;;;;5046150;28;20122;-59
2021/03/11 12:18:34;;;;;;;3.97;2.45;;;13.10;96.10;;;;;;5046394;28;20060;-59
2021/03/11 12:21:01;;;;;;;4.63;1.88;;;13.20;96.10;;;;;;5046522;28;20028;-58
2021/03/11 12:23:27;;;;;;;4.75;2.55;;;13.20;96.20;;;;;;5046274;28;20135;-58
2021/03/11 12:25:56;;;;;;;4.78;2.67;;;13.30;96.00;;;;;;5046117;28;20103;-59
2021/03/11 12:28:22;;;;;;;4.70;2.47;;;13.40;96.30;;;;;;5046237;28;20017;-59
2021/03/11 12:30:48;;;;;;;4.90;2.60;;;13.40;96.20;;;;;;5046805;28;20032;-58
2021/03/11 12:33:15;;;;;;;5.93;2.75;;;13.40;96.20;;;;;;5046708;28;20020;-59
2021/03/11 12:35:41;;;;;;;4.78;2.60;;;13.40;96.10;;;;;;5044576;28;20067;-58
2021/03/11 12:38:06;;;;;;;6.15;2.70;;;13.40;96.10;;;;;;5046228;28;20098;-58
2021/03/11 12:40:33;;;;;;;2.55;1.90;;;13.50;96.00;;;;;;5045945;28;20028;-58
2021/03/11 12:42:59;;;;;;;5.85;3.00;;;13.50;96.30;;;;;;5045563;28;20108;-58
2021/03/11 12:45:25;;;;;;;4.70;3.05;;;13.50;95.70;;;;;;5045574;28;20112;-60
2021/03/11 12:47:51;;;;;;;7.13;3.20;;;13.50;95.30;;;;;;5045876;28;20029;-60
2021/03/11 12:50:19;;;;;;;5.85;2.90;;;13.50;95.40;;;;;;5045241;28;20021;-60